Mongmong, Guam
Current Conditions -  °F | °C
As of 1:36 PM on Saturday 27 Dec 2014 (Local Time) from PGUM Reporting Station
Broken Clouds Broken Clouds  
Wind Chill: 88°   Ceiling: 2500
Heat Index: 96°   Visibility: 10mi
Dew Point: 73°   Wind: 18mph
Humidity: 62%   Direction: 70°ENE
Pressure: 29.82"   Gusts: 24mph
Location:  13.47°N, 144.76°E
Report Text: PGUM 270336Z 07016G21KT 10SM BKN025 BKN036 31/23 A2982 RMK AO2
Loading
Personal Weather Stations






























Interactive Weather Map New forecast layout! Learn more

10-Day Weather Forecast

Advertisements
Track Severe Weather on mobile